Time;durP1;ratioP1;P1;durP2;ratioP2;P2;SDS_P1;SDS_P2;PMS_P1;PMS_P2;Temp;Humidity;BMP_temperature;BMP_pressure;BME280_temperature;BME280_humidity;BME280_pressure;Samples;Min_cycle;Max_cycle;Signal;HPM_P1;HPM_P2
2023/01/26 00:00:11;;;;;;;24.15;9.23;;;-0.90;99.90;;;;;;7404307;19;19937;-75
2023/01/26 00:02:40;;;;;;;25.85;10.48;;;-1.90;99.90;;;;;;7405733;19;19915;-74
2023/01/26 00:05:10;;;;;;;27.73;9.95;;;-0.40;99.90;;;;;;7405881;19;19929;-74
2023/01/26 00:07:44;;;;;;;25.67;9.57;;;-0.20;99.90;;;;;;7405766;19;19911;-75
2023/01/26 00:10:16;;;;;;;27.70;9.90;;;-1.30;99.90;;;;;;7408576;19;19931;-74
2023/01/26 00:12:45;;;;;;;26.33;9.95;;;-1.60;99.90;;;;;;7405541;19;20251;-75
2023/01/26 00:15:13;;;;;;;26.75;9.98;;;-0.30;99.90;;;;;;7406259;19;20014;-74
2023/01/26 00:17:42;;;;;;;26.67;10.00;;;-1.40;99.90;;;;;;7408228;19;19918;-75
2023/01/26 00:20:13;;;;;;;27.77;10.60;;;-0.70;99.90;;;;;;7404127;19;19935;-74
2023/01/26 00:22:42;;;;;;;22.60;9.25;;;-0.90;99.90;;;;;;7405435;19;20372;-75
2023/01/26 00:25:12;;;;;;;25.15;10.82;;;-1.50;99.90;;;;;;7404304;19;19928;-75
2023/01/26 00:27:43;;;;;;;26.45;11.48;;;-0.70;99.90;;;;;;7405434;19;19922;-74
2023/01/26 00:30:13;;;;;;;27.63;10.73;;;-0.10;99.90;;;;;;7402730;19;19918;-75
2023/01/26 00:32:42;;;;;;;25.40;10.35;;;-0.40;99.90;;;;;;7407876;19;19931;-75
2023/01/26 00:35:11;;;;;;;22.85;8.57;;;-0.50;99.90;;;;;;7407706;19;19942;-75
2023/01/26 00:37:42;;;;;;;27.15;9.82;;;-0.40;99.90;;;;;;7407990;19;20013;-75
2023/01/26 00:40:12;;;;;;;28.23;9.35;;;-0.20;99.90;;;;;;7402762;19;19914;-75
2023/01/26 00:42:44;;;;;;;22.15;9.32;;;-0.50;99.90;;;;;;7409683;19;20334;-74
2023/01/26 00:45:13;;;;;;;25.05;8.63;;;-0.10;99.90;;;;;;7405091;19;19911;-75
2023/01/26 00:47:43;;;;;;;21.75;8.95;;;-0.70;99.90;;;;;;7407695;19;19919;-75
2023/01/26 00:50:13;;;;;;;22.92;9.23;;;-0.30;99.90;;;;;;7406857;19;20321;-74
2023/01/26 00:52:42;;;;;;;22.30;9.13;;;-0.60;99.90;;;;;;7404471;19;19914;-74
2023/01/26 00:55:11;;;;;;;23.73;8.52;;;-0.70;99.90;;;;;;7404857;19;19910;-74
2023/01/26 00:57:40;;;;;;;20.58;7.43;;;-1.10;99.90;;;;;;7404904;19;19938;-74
2023/01/26 01:00:15;;;;;;;22.63;8.68;;;-0.60;99.90;;;;;;7403714;19;19947;-74
2023/01/26 01:02:44;;;;;;;22.00;8.50;;;-0.80;99.90;;;;;;7406971;19;19922;-75
2023/01/26 01:05:14;;;;;;;23.27;9.30;;;-0.30;99.90;;;;;;7404647;19;19916;-75
2023/01/26 01:07:42;;;;;;;21.38;9.23;;;-0.60;99.90;;;;;;7404299;19;20349;-75
2023/01/26 01:10:12;;;;;;;22.35;8.57;;;-1.30;99.90;;;;;;7403804;19;19925;-75
2023/01/26 01:12:41;;;;;;;20.80;7.22;;;-0.40;99.90;;;;;;7404042;19;19922;-75
2023/01/26 01:15:13;;;;;;;24.02;8.23;;;-1.60;99.90;;;;;;7404390;19;19929;-75
2023/01/26 01:17:42;;;;;;;23.55;8.80;;;-0.90;99.90;;;;;;7407374;19;20261;-75
2023/01/26 01:20:13;;;;;;;24.27;8.10;;;-0.90;99.90;;;;;;7405972;19;19933;-75
2023/01/26 01:22:42;;;;;;;18.52;7.18;;;-1.50;99.90;;;;;;7404004;19;20339;-75
2023/01/26 01:25:11;;;;;;;18.63;8.25;;;-1.40;99.90;;;;;;7402839;19;19918;-74
2023/01/26 01:27:40;;;;;;;19.95;7.53;;;-0.10;99.90;;;;;;7403867;19;19919;-75
2023/01/26 01:30:13;;;;;;;19.98;6.88;;;-1.40;99.90;;;;;;7403691;19;19925;-75
2023/01/26 01:32:43;;;;;;;19.85;8.55;;;-1.40;99.90;;;;;;7406589;19;19925;-74
2023/01/26 01:35:12;;;;;;;19.50;6.53;;;-0.10;99.90;;;;;;7404187;19;19931;-74
2023/01/26 01:37:41;;;;;;;18.58;7.00;;;;;;;;;;7403608;19;20359;-74
2023/01/26 01:40:14;;;;;;;16.98;6.82;;;-1.10;99.90;;;;;;7402872;19;19923;-75
2023/01/26 01:42:49;;;;;;;17.95;7.10;;;-1.10;99.90;;;;;;7407154;19;19930;-75
2023/01/26 01:45:41;;;;;;;18.15;6.85;;;-0.60;99.90;;;;;;7405545;19;19918;-75
2023/01/26 01:48:21;;;;;;;16.00;6.95;;;-1.00;99.90;;;;;;7406471;19;19923;-75
2023/01/26 01:50:51;;;;;;;18.02;6.88;;;-1.40;99.90;;;;;;7403670;19;19922;-74
2023/01/26 01:53:24;;;;;;;18.02;7.30;;;-0.10;99.90;;;;;;7406929;19;19918;-74
2023/01/26 01:55:57;;;;;;;18.83;7.35;;;-0.90;99.90;;;;;;7402284;19;20267;-75
2023/01/26 01:58:26;;;;;;;19.13;7.15;;;-0.40;99.90;;;;;;7406337;19;20285;-75
2023/01/26 02:00:58;;;;;;;17.67;6.50;;;-0.50;99.90;;;;;;7404237;19;19926;-75
2023/01/26 02:03:28;;;;;;;16.83;7.03;;;-1.00;99.90;;;;;;7403129;19;20244;-75
2023/01/26 02:06:01;;;;;;;18.52;7.05;;;-0.10;99.90;;;;;;7402533;19;19925;-75
2023/01/26 02:08:35;;;;;;;15.98;5.72;;;-0.90;99.90;;;;;;7402684;19;19974;-75
2023/01/26 02:11:08;;;;;;;16.45;6.20;;;0.00;99.90;;;;;;7402209;19;19934;-75
2023/01/26 02:13:39;;;;;;;15.18;6.07;;;-0.70;99.90;;;;;;7405936;19;19922;-75
2023/01/26 02:16:10;;;;;;;16.55;6.43;;;-0.40;99.90;;;;;;7403262;19;19945;-75
2023/01/26 02:18:40;;;;;;;13.18;5.63;;;-0.60;99.90;;;;;;7405082;19;19922;-75
2023/01/26 02:21:12;;;;;;;13.38;5.75;;;-1.30;99.90;;;;;;7400546;19;19936;-75
2023/01/26 02:23:52;;;;;;;17.98;6.75;;;0.20;99.90;;;;;;7401856;19;19929;-75
2023/01/26 02:26:26;;;;;;;15.35;5.80;;;-1.20;99.90;;;;;;7405942;19;19922;-75
2023/01/26 02:28:55;;;;;;;14.25;5.57;;;-0.40;99.90;;;;;;7402070;19;19915;-74
2023/01/26 02:31:25;;;;;;;15.05;5.88;;;-1.30;99.90;;;;;;7401898;19;19929;-74
2023/01/26 02:33:54;;;;;;;15.25;5.50;;;-0.50;99.90;;;;;;7401744;19;20336;-75
2023/01/26 02:36:25;;;;;;;12.50;5.28;;;-1.40;99.90;;;;;;7402014;19;19930;-75
2023/01/26 02:39:01;;;;;;;13.43;5.72;;;-0.40;99.90;;;;;;7401039;19;19922;-75
2023/01/26 02:44:16;;;;;;;16.83;5.07;;;-0.80;99.90;;;;;;7401278;19;19926;-75
2023/01/26 02:46:45;;;;;;;14.50;5.85;;;0.10;99.90;;;;;;7402394;19;19922;-74
2023/01/26 02:51:55;;;;;;;15.07;6.07;;;0.10;99.90;;;;;;7402534;19;19918;-75
2023/01/26 02:57:08;;;;;;;14.18;5.60;;;-0.90;99.90;;;;;;7408066;19;19910;-75
2023/01/26 02:59:37;;;;;;;13.27;5.50;;;;;;;;;;7406295;19;19926;-75
2023/01/26 03:02:06;;;;;;;16.60;6.55;;;-0.10;99.90;;;;;;7410091;19;20745;-75
2023/01/26 03:04:34;;;;;;;15.70;5.70;;;-1.00;99.90;;;;;;7407564;19;19919;-75
2023/01/26 03:07:04;;;;;;;16.15;5.97;;;-0.70;99.90;;;;;;7407701;19;20316;-74
2023/01/26 03:09:33;;;;;;;16.58;6.03;;;-0.40;99.90;;;;;;7408028;19;19919;-75
2023/01/26 03:12:01;;;;;;;14.77;5.97;;;-0.40;99.90;;;;;;7406983;19;19954;-75
2023/01/26 03:14:33;;;;;;;18.27;6.22;;;-0.90;99.90;;;;;;7407534;19;19919;-76
2023/01/26 03:17:02;;;;;;;12.82;5.72;;;0.10;99.90;;;;;;7411168;19;19929;-75
2023/01/26 03:27:41;;;;;;;14.13;5.15;;;0.20;99.90;;;;;;7407742;19;19934;-75
2023/01/26 03:30:15;;;;;;;14.30;5.45;;;0.20;99.90;;;;;;7411451;19;19918;-75
2023/01/26 03:32:43;;;;;;;14.85;5.13;;;-0.40;99.90;;;;;;7409734;19;19933;-75
2023/01/26 03:35:14;;;;;;;12.05;4.57;;;0.10;99.90;;;;;;7406623;19;20687;-75
2023/01/26 03:37:43;;;;;;;10.90;4.50;;;-0.20;99.90;;;;;;7406873;19;19911;-75
2023/01/26 03:56:24;;;;;;;13.95;5.72;;;;;;;;;;7406550;19;20017;-75
2023/01/26 03:58:54;;;;;;;13.43;4.95;;;0.20;99.90;;;;;;7406103;19;19910;-75
2023/01/26 04:01:27;;;;;;;14.27;5.50;;;0.00;99.90;;;;;;7406479;19;19918;-76
2023/01/26 04:09:22;;;;;;;10.48;4.90;;;-0.10;99.90;;;;;;7408642;19;19928;-75
2023/01/26 04:11:51;;;;;;;12.75;4.95;;;0.20;99.90;;;;;;7405801;19;19907;-75
2023/01/26 04:22:28;;;;;;;11.85;4.72;;;-1.00;99.90;;;;;;7408270;19;19925;-75
2023/01/26 04:24:58;;;;;;;14.77;4.88;;;-0.50;99.90;;;;;;7407582;19;19923;-75
2023/01/26 04:27:27;;;;;;;10.13;4.80;;;-0.40;99.90;;;;;;7408697;19;19923;-75
2023/01/26 04:29:56;;;;;;;11.73;5.20;;;-0.70;99.90;;;;;;7405383;19;20317;-75
2023/01/26 04:32:28;;;;;;;11.18;5.18;;;0.10;99.90;;;;;;7408975;19;19918;-75
2023/01/26 04:34:57;;;;;;;13.32;4.32;;;0.40;99.90;;;;;;7405200;19;19919;-75
2023/01/26 04:37:26;;;;;;;12.07;4.22;;;-0.10;99.90;;;;;;7407160;19;19938;-75
2023/01/26 04:39:54;;;;;;;13.68;5.07;;;0.40;99.90;;;;;;7408198;19;19930;-75
2023/01/26 04:42:24;;;;;;;17.08;5.00;;;-0.40;99.90;;;;;;7404992;19;20363;-75
2023/01/26 04:44:53;;;;;;;12.45;5.20;;;0.30;99.90;;;;;;7405758;19;19919;-75
2023/01/26 04:47:23;;;;;;;11.82;4.80;;;-0.70;99.90;;;;;;7405491;19;19922;-75
2023/01/26 04:49:54;;;;;;;13.43;5.38;;;0.20;99.90;;;;;;7405791;19;20277;-75
2023/01/26 04:52:23;;;;;;;14.68;5.70;;;0.40;99.90;;;;;;7405126;19;19982;-75
2023/01/26 04:54:52;;;;;;;13.55;4.90;;;0.40;99.90;;;;;;7405039;19;20012;-75
2023/01/26 04:57:22;;;;;;;12.35;5.68;;;-0.10;99.90;;;;;;7407433;19;19930;-75
2023/01/26 04:59:51;;;;;;;12.20;5.55;;;-0.90;99.90;;;;;;7404335;19;19919;-75
2023/01/26 05:02:20;;;;;;;10.57;4.82;;;0.20;99.90;;;;;;7406926;19;19915;-75
2023/01/26 05:04:50;;;;;;;16.05;5.85;;;-0.80;99.90;;;;;;7404551;19;19915;-75
2023/01/26 05:07:22;;;;;;;17.65;6.10;;;-0.10;99.90;;;;;;7406895;19;19939;-75
2023/01/26 05:09:52;;;;;;;13.57;5.18;;;0.50;99.90;;;;;;7407960;19;19911;-75
2023/01/26 05:15:02;;;;;;;14.15;4.55;;;-0.90;99.90;;;;;;7402258;19;19930;-75
2023/01/26 05:17:31;;;;;;;13.45;4.82;;;-0.20;99.90;;;;;;7406506;19;20347;-76
2023/01/26 05:20:00;;;;;;;15.27;4.85;;;0.50;99.90;;;;;;7404120;19;19923;-75
2023/01/26 05:22:32;;;;;;;14.15;5.10;;;-0.70;99.90;;;;;;7404167;19;19914;-75
2023/01/26 05:25:01;;;;;;;10.73;4.63;;;0.50;99.90;;;;;;7407327;19;19955;-75
2023/01/26 05:27:30;;;;;;;15.63;5.15;;;-0.60;99.90;;;;;;7406018;19;19947;-75
2023/01/26 05:29:59;;;;;;;14.77;6.05;;;-0.70;99.90;;;;;;7404165;19;20337;-75
2023/01/26 05:32:28;;;;;;;15.07;6.32;;;0.80;99.90;;;;;;7403749;19;19922;-75
2023/01/26 05:34:57;;;;;;;14.85;5.38;;;0.00;99.90;;;;;;7405855;19;19925;-75
2023/01/26 05:37:27;;;;;;;12.57;6.00;;;0.50;99.90;;;;;;7406739;19;19918;-75
2023/01/26 05:39:59;;;;;;;10.93;4.80;;;0.30;99.90;;;;;;7402692;19;19923;-75
2023/01/26 05:42:28;;;;;;;11.52;4.82;;;0.80;99.90;;;;;;7406332;19;19922;-75
2023/01/26 05:44:57;;;;;;;13.70;5.25;;;;;;;;;;7403943;19;19923;-75
2023/01/26 05:47:26;;;;;;;12.15;4.72;;;-0.80;99.90;;;;;;7404640;19;19930;-77
2023/01/26 05:49:55;;;;;;;14.30;4.80;;;0.60;99.90;;;;;;7403223;19;19921;-76
2023/01/26 05:52:24;;;;;;;13.05;5.43;;;0.30;99.90;;;;;;7404744;19;19915;-75
2023/01/26 05:54:53;;;;;;;10.65;5.18;;;0.10;99.90;;;;;;7407661;19;20323;-75
2023/01/26 05:57:25;;;;;;;11.02;4.43;;;-0.70;99.90;;;;;;7405724;19;19925;-75
2023/01/26 05:59:54;;;;;;;12.60;4.97;;;0.10;99.90;;;;;;7406509;19;19915;-75
2023/01/26 06:02:23;;;;;;;12.50;4.63;;;-0.40;99.90;;;;;;7400979;19;20340;-75
2023/01/26 06:04:52;;;;;;;12.80;5.15;;;0.40;99.90;;;;;;7405218;19;19964;-75
2023/01/26 06:07:21;;;;;;;14.60;5.15;;;-0.20;99.90;;;;;;7404836;19;19996;-75
2023/01/26 06:09:50;;;;;;;9.68;4.78;;;-0.10;99.90;;;;;;7402558;19;20370;-75
2023/01/26 06:12:21;;;;;;;13.85;4.97;;;0.50;99.90;;;;;;7404830;19;19926;-75
2023/01/26 06:14:52;;;;;;;11.38;5.15;;;-0.20;99.90;;;;;;7402562;19;19929;-75
2023/01/26 06:17:21;;;;;;;16.45;4.90;;;0.60;99.90;;;;;;7405799;19;19933;-75
2023/01/26 06:19:50;;;;;;;13.02;5.38;;;-0.30;99.90;;;;;;7402385;19;20268;-75
2023/01/26 06:22:19;;;;;;;13.48;5.43;;;0.00;99.90;;;;;;7402089;19;19922;-75
2023/01/26 06:24:49;;;;;;;14.77;5.90;;;-0.10;99.90;;;;;;7404294;19;19943;-75
2023/01/26 06:27:20;;;;;;;14.40;4.70;;;-0.20;99.90;;;;;;7408359;19;20400;-75
2023/01/26 06:29:51;;;;;;;14.80;5.28;;;0.30;99.90;;;;;;7409079;19;19918;-75
2023/01/26 06:32:20;;;;;;;8.80;4.70;;;0.90;99.90;;;;;;7411381;19;19922;-75
2023/01/26 06:34:52;;;;;;;15.55;6.25;;;;;;;;;;7412057;19;19922;-74
2023/01/26 06:37:21;;;;;;;14.68;6.65;;;0.70;99.90;;;;;;7408653;19;19910;-75
2023/01/26 06:39:49;;;;;;;15.30;5.70;;;0.10;99.90;;;;;;7408664;19;20288;-75
2023/01/26 06:42:18;;;;;;;12.70;4.35;;;0.70;99.90;;;;;;7408018;19;19935;-75
2023/01/26 06:44:47;;;;;;;16.00;5.10;;;-0.30;99.90;;;;;;7408988;19;19918;-75
2023/01/26 06:47:19;;;;;;;14.30;5.05;;;0.70;99.90;;;;;;7408790;19;20271;-75
2023/01/26 06:49:49;;;;;;;15.18;5.22;;;1.00;99.90;;;;;;7407875;19;19919;-75
2023/01/26 06:52:27;;;;;;;18.73;6.20;;;-0.10;99.90;;;;;;7408714;19;19982;-75
2023/01/26 06:54:56;;;;;;;16.25;6.15;;;-0.20;99.90;;;;;;7407783;19;19918;-75
2023/01/26 06:57:25;;;;;;;22.98;9.63;;;-0.40;99.90;;;;;;7411615;19;19922;-75
2023/01/26 06:59:56;;;;;;;17.33;6.95;;;0.20;99.90;;;;;;7407717;19;19930;-75
2023/01/26 07:02:27;;;;;;;21.30;6.18;;;0.50;99.90;;;;;;7408987;19;19998;-75
2023/01/26 07:04:56;;;;;;;21.17;8.18;;;;;;;;;;7407055;19;19915;-75
2023/01/26 07:07:25;;;;;;;55.75;23.88;;;-0.40;99.90;;;;;;7407264;19;19911;-75
2023/01/26 07:09:54;;;;;;;37.03;15.63;;;0.80;99.90;;;;;;7408035;19;19942;-75
2023/01/26 07:12:24;;;;;;;32.15;14.35;;;0.30;99.90;;;;;;7411473;19;19927;-75
2023/01/26 07:14:53;;;;;;;38.80;17.38;;;1.00;99.90;;;;;;7409903;19;20265;-75
2023/01/26 07:17:22;;;;;;;88.90;38.60;;;1.10;99.90;;;;;;7410705;19;19922;-75
2023/01/26 07:19:53;;;;;;;31.48;12.88;;;1.30;99.90;;;;;;7407489;19;19917;-76
2023/01/26 07:22:22;;;;;;;44.72;18.70;;;0.60;99.90;;;;;;7404935;19;20344;-76
2023/01/26 07:24:52;;;;;;;15.63;6.43;;;-0.20;99.90;;;;;;7410205;19;19918;-76
2023/01/26 07:27:20;;;;;;;17.67;8.43;;;1.00;99.90;;;;;;7410433;19;19922;-75
2023/01/26 07:29:50;;;;;;;22.23;7.13;;;0.70;99.90;;;;;;7407001;19;20193;-75
2023/01/26 07:32:19;;;;;;;13.85;6.03;;;0.40;99.90;;;;;;7410033;19;19929;-75
2023/01/26 07:34:48;;;;;;;18.25;5.60;;;;;;;;;;7406584;19;19925;-75
2023/01/26 07:37:20;;;;;;;23.77;6.25;;;1.50;99.90;;;;;;7410851;19;19925;-75
2023/01/26 07:39:48;;;;;;;12.13;4.22;;;1.30;99.90;;;;;;7405776;19;19910;-75
2023/01/26 07:42:17;;;;;;;15.10;4.22;;;1.20;99.90;;;;;;7408590;19;19922;-75
2023/01/26 07:44:46;;;;;;;18.67;3.85;;;0.70;99.90;;;;;;7406628;19;20525;-75
2023/01/26 07:47:16;;;;;;;22.45;5.32;;;0.70;99.90;;;;;;7404318;19;19921;-75
2023/01/26 07:49:45;;;;;;;19.35;5.80;;;0.50;99.90;;;;;;7406604;19;19926;-75
2023/01/26 07:52:14;;;;;;;23.83;10.15;;;0.40;99.90;;;;;;7406183;19;19911;-75
2023/01/26 07:54:46;;;;;;;18.17;6.45;;;0.90;99.90;;;;;;7406430;19;19921;-75
2023/01/26 07:57:15;;;;;;;23.02;8.05;;;1.50;99.90;;;;;;7410540;19;19957;-75
2023/01/26 07:59:44;;;;;;;19.08;7.13;;;1.90;99.90;;;;;;7406199;19;19927;-75
2023/01/26 08:02:13;;;;;;;18.65;7.03;;;0.80;99.90;;;;;;7407613;19;20333;-75
2023/01/26 08:04:42;;;;;;;20.70;6.18;;;0.70;99.90;;;;;;7405861;19;19919;-75
2023/01/26 08:07:10;;;;;;;23.17;4.78;;;1.30;99.90;;;;;;7409792;19;19926;-75
2023/01/26 08:09:39;;;;;;;21.13;3.90;;;1.80;99.90;;;;;;7406920;19;19922;-75
2023/01/26 08:12:11;;;;;;;16.70;3.55;;;1.30;99.90;;;;;;7405983;19;19923;-75
2023/01/26 08:14:41;;;;;;;18.60;4.15;;;1.70;99.90;;;;;;7407394;19;19926;-76
2023/01/26 08:17:09;;;;;;;12.35;3.58;;;1.30;99.90;;;;;;7409395;19;20269;-75
2023/01/26 08:19:38;;;;;;;19.75;3.58;;;1.00;99.90;;;;;;7406013;19;19921;-75
2023/01/26 08:22:07;;;;;;;15.98;2.83;;;1.30;99.90;;;;;;7407432;19;19918;-75
2023/01/26 08:24:36;;;;;;;20.55;2.85;;;;;;;;;;7407742;19;19929;-75
2023/01/26 08:27:06;;;;;;;25.20;2.30;;;2.50;99.90;;;;;;7405341;19;19938;-75
2023/01/26 08:29:37;;;;;;;13.85;2.00;;;1.80;99.90;;;;;;7406379;19;19922;-75
2023/01/26 08:32:07;;;;;;;21.10;2.60;;;1.30;99.90;;;;;;7405598;19;19919;-74
2023/01/26 08:34:36;;;;;;;22.42;3.35;;;1.20;99.90;;;;;;7405284;19;19921;-75
2023/01/26 08:37:05;;;;;;;17.45;2.47;;;1.10;99.90;;;;;;7405489;19;20245;-75
2023/01/26 08:39:34;;;;;;;19.13;2.30;;;2.60;99.90;;;;;;7407181;19;19918;-75
2023/01/26 08:42:03;;;;;;;20.00;3.58;;;1.90;99.90;;;;;;7406818;19;19939;-75
2023/01/26 08:44:32;;;;;;;19.55;2.75;;;2.00;99.90;;;;;;7404810;19;20356;-75
2023/01/26 08:47:04;;;;;;;21.55;3.03;;;1.90;99.90;;;;;;7408102;19;20262;-75
2023/01/26 08:49:33;;;;;;;26.55;2.83;;;1.80;99.90;;;;;;7402708;19;19947;-75
2023/01/26 08:52:02;;;;;;;24.52;4.38;;;1.60;99.90;;;;;;7406205;19;20252;-75
2023/01/26 08:54:30;;;;;;;21.15;2.20;;;1.90;99.90;;;;;;7404449;19;19911;-75
2023/01/26 08:57:00;;;;;;;15.45;2.03;;;1.90;99.90;;;;;;7407747;19;19982;-75
2023/01/26 08:59:28;;;;;;;19.25;2.95;;;2.50;99.90;;;;;;7404625;19;19925;-75
2023/01/26 09:01:57;;;;;;;15.85;2.28;;;2.00;99.90;;;;;;7405366;19;19974;-75
2023/01/26 09:04:29;;;;;;;18.20;2.72;;;2.10;99.90;;;;;;7408051;19;19915;-75
2023/01/26 09:06:58;;;;;;;14.07;2.50;;;1.80;99.90;;;;;;7404803;19;20376;-75
2023/01/26 09:09:27;;;;;;;33.10;3.35;;;2.90;99.90;;;;;;7404626;19;19959;-75
2023/01/26 09:11:57;;;;;;;18.95;3.05;;;2.90;99.90;;;;;;7403937;19;19911;-75
2023/01/26 09:14:27;;;;;;;20.83;4.93;;;1.70;99.90;;;;;;7404962;19;19906;-75
2023/01/26 09:16:56;;;;;;;21.02;2.85;;;2.20;99.90;;;;;;7406504;19;19922;-75
2023/01/26 09:19:25;;;;;;;20.23;3.60;;;1.40;99.90;;;;;;7407635;19;19923;-75
2023/01/26 09:21:57;;;;;;;19.35;3.65;;;1.90;99.90;;;;;;7407624;19;19925;-75
2023/01/26 09:24:26;;;;;;;20.10;3.38;;;2.90;99.90;;;;;;7406077;19;19926;-75
2023/01/26 09:26:57;;;;;;;17.35;3.28;;;2.50;99.90;;;;;;7403802;19;20260;-75
2023/01/26 09:29:29;;;;;;;13.60;2.95;;;3.60;99.90;;;;;;7405235;19;19922;-76
2023/01/26 09:31:58;;;;;;;23.65;2.45;;;3.20;99.90;;;;;;7404124;19;19983;-76
2023/01/26 09:34:27;;;;;;;20.55;2.97;;;2.80;99.90;;;;;;7404499;19;19925;-75
2023/01/26 09:36:58;;;;;;;18.27;2.70;;;2.60;99.90;;;;;;7405483;19;19966;-75
2023/01/26 09:39:27;;;;;;;14.88;2.50;;;3.70;99.90;;;;;;7407724;19;19922;-75
2023/01/26 09:42:11;;;;;;;14.98;2.28;;;3.00;99.90;;;;;;7404955;19;19951;-75
2023/01/26 09:44:49;;;;;;;12.10;3.40;;;3.10;99.90;;;;;;7403347;19;20275;-75
2023/01/26 09:47:25;;;;;;;20.80;2.63;;;3.00;99.90;;;;;;7400394;19;19982;-75
2023/01/26 09:50:02;;;;;;;20.65;3.28;;;3.00;99.90;;;;;;7404904;19;19914;-75
2023/01/26 09:52:38;;;;;;;12.00;1.77;;;4.40;99.90;;;;;;7406924;19;19922;-75
2023/01/26 09:55:14;;;;;;;15.93;2.25;;;3.30;99.90;;;;;;7404372;19;19974;-75
2023/01/26 09:57:48;;;;;;;15.93;1.92;;;2.80;99.90;;;;;;7403104;19;19915;-75
2023/01/26 10:00:23;;;;;;;12.40;2.40;;;3.00;99.90;;;;;;7406715;19;19951;-75
2023/01/26 10:03:05;;;;;;;16.63;2.17;;;3.40;99.90;;;;;;7402264;19;19922;-75
2023/01/26 10:05:43;;;;;;;14.77;2.47;;;3.90;99.90;;;;;;7405223;19;20359;-76
2023/01/26 10:08:18;;;;;;;17.17;2.45;;;3.80;99.90;;;;;;7405824;19;19926;-75
2023/01/26 10:10:50;;;;;;;11.02;2.45;;;3.80;99.90;;;;;;7401750;19;19918;-76
2023/01/26 10:13:21;;;;;;;15.18;2.00;;;4.50;99.90;;;;;;7405260;19;19922;-76
2023/01/26 10:15:53;;;;;;;12.55;2.05;;;3.90;99.90;;;;;;7405580;19;20382;-76
2023/01/26 10:18:27;;;;;;;15.05;2.17;;;3.70;99.90;;;;;;7406042;19;19941;-76
2023/01/26 10:20:58;;;;;;;12.63;2.72;;;3.60;99.90;;;;;;7406413;19;20285;-76
2023/01/26 10:23:31;;;;;;;15.95;2.60;;;4.50;99.90;;;;;;7401090;19;19946;-76
2023/01/26 10:26:08;;;;;;;14.30;2.67;;;3.90;99.90;;;;;;7400563;19;20118;-76
2023/01/26 10:28:38;;;;;;;20.42;2.88;;;3.90;99.90;;;;;;7402003;19;19954;-76
2023/01/26 10:31:13;;;;;;;19.73;2.75;;;4.00;99.90;;;;;;7402119;19;19982;-76
2023/01/26 10:33:50;;;;;;;15.52;2.45;;;4.80;99.90;;;;;;7401775;19;19943;-76
2023/01/26 10:36:18;;;;;;;14.50;2.35;;;4.70;99.90;;;;;;7402039;19;20249;-76
2023/01/26 10:38:50;;;;;;;12.68;1.88;;;4.60;99.90;;;;;;7401755;19;19926;-76
2023/01/26 10:41:26;;;;;;;18.08;1.90;;;4.40;99.90;;;;;;7401134;19;19922;-76
2023/01/26 10:43:58;;;;;;;10.40;1.98;;;4.50;99.90;;;;;;7399558;19;19924;-76
2023/01/26 10:46:30;;;;;;;25.30;2.53;;;4.30;99.90;;;;;;7400398;19;20331;-76
2023/01/26 10:49:01;;;;;;;15.77;2.80;;;4.30;99.90;;;;;;7402208;19;19923;-76
2023/01/26 10:51:32;;;;;;;12.60;2.00;;;5.10;99.90;;;;;;7401873;19;19930;-76
2023/01/26 10:54:22;;;;;;;17.33;1.60;;;4.60;99.90;;;;;;7401076;19;19932;-77
2023/01/26 10:56:54;;;;;;;10.45;1.85;;;4.90;99.90;;;;;;7401397;19;19943;-76
2023/01/26 10:59:35;;;;;;;16.27;2.17;;;4.70;99.90;;;;;;7400911;19;19911;-76
2023/01/26 11:02:23;;;;;;;13.85;2.08;;;4.80;99.90;;;;;;7400892;19;19926;-76
2023/01/26 11:05:21;;;;;;;10.80;1.60;;;4.90;99.90;;;;;;7401181;19;19925;-77
2023/01/26 11:07:54;;;;;;;14.98;1.45;;;5.10;99.90;;;;;;7400868;19;19986;-76
2023/01/26 11:10:29;;;;;;;14.43;2.17;;;5.00;99.90;;;;;;7400493;19;19980;-77
2023/01/26 11:13:16;;;;;;;20.95;2.28;;;5.20;99.90;;;;;;7405951;19;19939;-76
2023/01/26 11:15:47;;;;;;;14.02;2.28;;;6.20;99.90;;;;;;7407459;19;19935;-76
2023/01/26 11:18:29;;;;;;;11.25;1.75;;;5.30;99.90;;;;;;7408164;19;19990;-77
2023/01/26 11:21:05;;;;;;;12.27;1.67;;;5.70;99.90;;;;;;7407340;19;19910;-77
2023/01/26 11:23:59;;;;;;;12.10;1.83;;;5.50;99.90;;;;;;7404718;19;19919;-76
2023/01/26 11:26:53;;;;;;;9.57;1.63;;;5.50;99.90;;;;;;7407984;19;20348;-76
2023/01/26 11:29:40;;;;;;;11.85;1.70;;;5.70;99.90;;;;;;7406983;19;19918;-76
2023/01/26 11:32:20;;;;;;;15.27;1.52;;;6.50;99.90;;;;;;7406800;19;20141;-76
2023/01/26 11:34:58;;;;;;;6.47;1.25;;;5.80;99.90;;;;;;7406698;19;20355;-76
2023/01/26 11:37:37;;;;;;;;;;;6.00;99.90;;;;;;7411079;19;20285;-77
2023/01/26 11:40:23;;;;;;;11.55;1.83;;;6.00;99.90;;;;;;7406468;19;19943;-76
2023/01/26 11:43:13;;;;;;;11.82;2.10;;;6.00;99.90;;;;;;7405333;19;19911;-76
2023/01/26 11:46:03;;;;;;;8.43;1.48;;;6.10;99.90;;;;;;7410182;19;19945;-76
2023/01/26 11:48:41;;;;;;;8.25;1.45;;;6.10;99.90;;;;;;7406256;19;20287;-76
2023/01/26 11:51:20;;;;;;;10.77;1.95;;;6.10;99.90;;;;;;7406424;19;19915;-76
2023/01/26 11:54:31;;;;;;;15.55;1.77;;;6.30;99.90;;;;;;7406340;19;20349;-76
2023/01/26 11:57:08;;;;;;;13.27;1.63;;;6.50;99.90;;;;;;7404916;19;19919;-76
2023/01/26 11:59:44;;;;;;;11.98;2.10;;;6.40;99.90;;;;;;7408000;19;19926;-77
2023/01/26 12:02:26;;;;;;;10.82;1.90;;;6.70;99.90;;;;;;7405576;19;19907;-76
2023/01/26 12:04:57;;;;;;;9.57;1.67;;;7.00;99.90;;;;;;7406036;19;19954;-76
2023/01/26 12:07:31;;;;;;;9.88;2.05;;;6.70;99.90;;;;;;7405763;19;19946;-77
2023/01/26 12:10:04;;;;;;;10.77;1.98;;;6.80;99.90;;;;;;7405187;19;19914;-76
2023/01/26 12:12:39;;;;;;;9.70;1.55;;;6.90;99.90;;;;;;7410055;19;19931;-76
2023/01/26 12:15:15;;;;;;;15.85;2.15;;;7.50;99.90;;;;;;7406938;19;19927;-76
2023/01/26 12:17:52;;;;;;;15.00;2.00;;;6.90;99.90;;;;;;7405582;19;19918;-76
2023/01/26 12:20:37;;;;;;;13.63;2.67;;;7.60;99.90;;;;;;7405734;19;19918;-77
2023/01/26 12:23:12;;;;;;;10.75;1.80;;;6.90;99.90;;;;;;7407536;19;20275;-76
2023/01/26 12:25:46;;;;;;;10.50;1.50;;;7.40;99.90;;;;;;7404180;19;20064;-76
2023/01/26 12:28:23;;;;;;;7.60;1.27;;;7.00;99.90;;;;;;7404962;19;19918;-75
2023/01/26 12:31:04;;;;;;;7.35;1.60;;;7.10;99.90;;;;;;7405251;19;19921;-76
2023/01/26 12:33:35;;;;;;;10.68;1.35;;;7.10;99.90;;;;;;7405770;19;19918;-76
2023/01/26 12:36:44;;;;;;;6.88;2.20;;;7.10;99.90;;;;;;7405548;19;20870;-76
2023/01/26 12:39:17;;;;;;;9.52;1.48;;;7.20;99.90;;;;;;7407303;19;19926;-76
2023/01/26 12:42:05;;;;;;;10.57;2.65;;;7.50;99.90;;;;;;7405230;19;19919;-76
2023/01/26 12:44:40;;;;;;;8.35;1.63;;;7.40;99.90;;;;;;7403031;19;19923;-76
2023/01/26 12:47:19;;;;;;;6.85;1.65;;;7.40;99.90;;;;;;7403416;19;20267;-76
2023/01/26 12:49:56;;;;;;;10.35;1.55;;;7.80;99.90;;;;;;7405188;19;20352;-76
2023/01/26 12:52:32;;;;;;;11.48;1.52;;;7.70;99.90;;;;;;7404779;19;20309;-76
2023/01/26 12:55:08;;;;;;;12.15;1.58;;;7.70;99.90;;;;;;7405032;19;19915;-76
2023/01/26 12:57:41;;;;;;;9.65;2.00;;;7.80;99.90;;;;;;7404516;19;19966;-75
2023/01/26 13:00:22;;;;;;;13.90;2.08;;;7.70;99.90;;;;;;7405160;19;20334;-76
2023/01/26 13:02:58;;;;;;;14.07;1.70;;;7.50;99.90;;;;;;7404550;19;19914;-76
2023/01/26 13:05:30;;;;;;;7.20;1.15;;;7.40;99.90;;;;;;7406172;19;19938;-76
2023/01/26 13:07:59;;;;;;;16.45;1.88;;;7.30;99.90;;;;;;7403758;19;19918;-75
2023/01/26 13:10:31;;;;;;;7.30;2.00;;;7.10;99.90;;;;;;7406417;19;20434;-76
2023/01/26 13:13:02;;;;;;;8.40;1.40;;;7.00;99.90;;;;;;7404897;19;19919;-76
2023/01/26 13:15:32;;;;;;;10.20;1.52;;;6.90;99.90;;;;;;7406313;19;19918;-75
2023/01/26 13:18:05;;;;;;;9.88;1.33;;;6.80;99.90;;;;;;7404679;19;19911;-76
2023/01/26 13:20:48;;;;;;;7.57;1.20;;;6.70;99.90;;;;;;7402670;19;19942;-76
2023/01/26 13:23:40;;;;;;;5.70;1.38;;;6.70;99.90;;;;;;7403653;19;19910;-75
2023/01/26 13:26:43;;;;;;;9.20;1.40;;;6.60;99.90;;;;;;7403918;19;19923;-76
2023/01/26 13:29:31;;;;;;;8.23;1.35;;;6.60;99.90;;;;;;7406549;19;19922;-75
2023/01/26 13:32:01;;;;;;;10.68;1.10;;;7.10;99.90;;;;;;7406810;19;19951;-75
2023/01/26 13:34:39;;;;;;;8.55;1.65;;;6.90;99.90;;;;;;7403699;19;19918;-76
2023/01/26 13:37:13;;;;;;;7.38;1.30;;;6.50;99.90;;;;;;7401629;19;19930;-76
2023/01/26 13:39:47;;;;;;;7.60;1.10;;;6.40;99.90;;;;;;7405909;19;19934;-75
2023/01/26 13:42:22;;;;;;;9.57;1.33;;;6.50;99.90;;;;;;7407202;19;19919;-76
2023/01/26 13:44:58;;;;;;;10.82;1.20;;;7.20;99.90;;;;;;7402262;19;19918;-75
2023/01/26 13:47:35;;;;;;;15.82;1.88;;;6.30;99.90;;;;;;7401842;19;19919;-76
2023/01/26 13:50:23;;;;;;;13.85;2.30;;;6.20;99.90;;;;;;7403844;19;19925;-75
2023/01/26 13:52:53;;;;;;;6.78;2.45;;;6.30;99.90;;;;;;7403346;19;20289;-76
2023/01/26 13:55:28;;;;;;;9.95;2.00;;;6.30;99.90;;;;;;7407524;19;19910;-76
2023/01/26 13:58:12;;;;;;;6.32;1.83;;;6.20;99.90;;;;;;7405966;19;19923;-76
2023/01/26 14:00:42;;;;;;;10.07;1.15;;;6.60;99.90;;;;;;7405982;19;19927;-76